sensor_id;sensor_type;location;lat;lon;timestamp;P1;durP1;ratioP1;P2;durP2;ratioP2
3249;SDS011;1637;42.020;23.992;2023-12-20T00:00:29;129.10;;;53.47;;
3249;SDS011;1637;42.020;23.992;2023-12-20T00:02:56;126.90;;;46.20;;
3249;SDS011;1637;42.020;23.992;2023-12-20T00:05:23;165.07;;;50.20;;
3249;SDS011;1637;42.020;23.992;2023-12-20T00:07:50;143.47;;;49.47;;
3249;SDS011;1637;42.020;23.992;2023-12-20T00:10:16;196.53;;;61.03;;
3249;SDS011;1637;42.020;23.992;2023-12-20T00:12:45;152.50;;;55.37;;
3249;SDS011;1637;42.020;23.992;2023-12-20T00:15:11;138.83;;;50.23;;
3249;SDS011;1637;42.020;23.992;2023-12-20T00:17:38;117.40;;;47.20;;
3249;SDS011;1637;42.020;23.992;2023-12-20T00:20:06;226.07;;;70.27;;
3249;SDS011;1637;42.020;23.992;2023-12-20T00:22:33;146.93;;;51.47;;
3249;SDS011;1637;42.020;23.992;2023-12-20T00:25:00;194.70;;;71.93;;
3249;SDS011;1637;42.020;23.992;2023-12-20T00:27:27;323.27;;;117.83;;
3249;SDS011;1637;42.020;23.992;2023-12-20T00:29:55;226.37;;;70.37;;
3249;SDS011;1637;42.020;23.992;2023-12-20T00:32:21;150.50;;;52.73;;
3249;SDS011;1637;42.020;23.992;2023-12-20T00:34:48;153.03;;;58.73;;
3249;SDS011;1637;42.020;23.992;2023-12-20T00:37:15;270.00;;;90.10;;
3249;SDS011;1637;42.020;23.992;2023-12-20T00:39:42;349.27;;;105.03;;
3249;SDS011;1637;42.020;23.992;2023-12-20T00:42:09;266.47;;;88.27;;
3249;SDS011;1637;42.020;23.992;2023-12-20T00:44:35;160.43;;;60.53;;
3249;SDS011;1637;42.020;23.992;2023-12-20T00:47:04;189.80;;;70.20;;
3249;SDS011;1637;42.020;23.992;2023-12-20T00:49:31;118.73;;;47.27;;
3249;SDS011;1637;42.020;23.992;2023-12-20T00:51:57;152.77;;;48.00;;
3249;SDS011;1637;42.020;23.992;2023-12-20T00:54:24;167.50;;;47.40;;
3249;SDS011;1637;42.020;23.992;2023-12-20T00:56:51;135.23;;;43.33;;
3249;SDS011;1637;42.020;23.992;2023-12-20T00:59:18;147.97;;;45.30;;
3249;SDS011;1637;42.020;23.992;2023-12-20T01:01:45;114.90;;;42.07;;
3249;SDS011;1637;42.020;23.992;2023-12-20T01:04:13;125.20;;;44.63;;
3249;SDS011;1637;42.020;23.992;2023-12-20T01:06:40;115.67;;;44.50;;
3249;SDS011;1637;42.020;23.992;2023-12-20T01:09:07;148.50;;;43.20;;
3249;SDS011;1637;42.020;23.992;2023-12-20T01:11:33;125.33;;;42.57;;
3249;SDS011;1637;42.020;23.992;2023-12-20T01:14:00;108.20;;;41.23;;
3249;SDS011;1637;42.020;23.992;2023-12-20T01:16:27;111.13;;;42.60;;
3249;SDS011;1637;42.020;23.992;2023-12-20T01:18:54;123.40;;;43.77;;
3249;SDS011;1637;42.020;23.992;2023-12-20T01:21:22;114.30;;;38.13;;
3249;SDS011;1637;42.020;23.992;2023-12-20T01:23:49;117.53;;;40.40;;
3249;SDS011;1637;42.020;23.992;2023-12-20T01:26:15;127.17;;;42.60;;
3249;SDS011;1637;42.020;23.992;2023-12-20T01:28:42;124.10;;;45.07;;
3249;SDS011;1637;42.020;23.992;2023-12-20T01:31:09;137.37;;;43.47;;
3249;SDS011;1637;42.020;23.992;2023-12-20T01:33:36;108.10;;;39.70;;
3249;SDS011;1637;42.020;23.992;2023-12-20T01:36:03;112.00;;;43.70;;
3249;SDS011;1637;42.020;23.992;2023-12-20T01:38:31;124.00;;;43.40;;
3249;SDS011;1637;42.020;23.992;2023-12-20T01:40:58;147.00;;;39.33;;
3249;SDS011;1637;42.020;23.992;2023-12-20T01:43:25;72.53;;;29.90;;
3249;SDS011;1637;42.020;23.992;2023-12-20T01:45:52;75.40;;;31.17;;
3249;SDS011;1637;42.020;23.992;2023-12-20T01:48:19;97.73;;;32.40;;
3249;SDS011;1637;42.020;23.992;2023-12-20T01:50:46;87.07;;;32.33;;
3249;SDS011;1637;42.020;23.992;2023-12-20T01:53:14;83.17;;;34.33;;
3249;SDS011;1637;42.020;23.992;2023-12-20T01:55:43;62.50;;;26.57;;
3249;SDS011;1637;42.020;23.992;2023-12-20T01:58:11;94.83;;;28.40;;
3249;SDS011;1637;42.020;23.992;2023-12-20T02:00:39;103.23;;;31.73;;
3249;SDS011;1637;42.020;23.992;2023-12-20T02:03:07;86.67;;;33.37;;
3249;SDS011;1637;42.020;23.992;2023-12-20T02:05:34;127.20;;;38.30;;
3249;SDS011;1637;42.020;23.992;2023-12-20T02:08:02;76.43;;;36.63;;
3249;SDS011;1637;42.020;23.992;2023-12-20T02:10:30;122.23;;;38.83;;
3249;SDS011;1637;42.020;23.992;2023-12-20T02:12:59;120.40;;;39.93;;
3249;SDS011;1637;42.020;23.992;2023-12-20T02:15:25;137.87;;;40.80;;
3249;SDS011;1637;42.020;23.992;2023-12-20T02:17:52;106.27;;;42.07;;
3249;SDS011;1637;42.020;23.992;2023-12-20T02:20:20;127.83;;;48.73;;
3249;SDS011;1637;42.020;23.992;2023-12-20T02:22:48;130.13;;;45.97;;
3249;SDS011;1637;42.020;23.992;2023-12-20T02:25:15;131.50;;;43.20;;
3249;SDS011;1637;42.020;23.992;2023-12-20T02:27:42;138.90;;;43.73;;
3249;SDS011;1637;42.020;23.992;2023-12-20T02:30:09;183.87;;;46.70;;
3249;SDS011;1637;42.020;23.992;2023-12-20T02:32:36;179.00;;;50.67;;
3249;SDS011;1637;42.020;23.992;2023-12-20T02:35:03;100.93;;;40.73;;
3249;SDS011;1637;42.020;23.992;2023-12-20T02:37:30;116.23;;;50.07;;
3249;SDS011;1637;42.020;23.992;2023-12-20T02:40:00;143.43;;;50.80;;
3249;SDS011;1637;42.020;23.992;2023-12-20T02:42:26;220.17;;;64.60;;
3249;SDS011;1637;42.020;23.992;2023-12-20T02:44:53;131.33;;;44.23;;
3249;SDS011;1637;42.020;23.992;2023-12-20T02:47:20;166.23;;;53.00;;
3249;SDS011;1637;42.020;23.992;2023-12-20T02:49:47;125.27;;;42.83;;
3249;SDS011;1637;42.020;23.992;2023-12-20T02:52:14;101.13;;;40.37;;
3249;SDS011;1637;42.020;23.992;2023-12-20T02:54:41;93.33;;;39.73;;
3249;SDS011;1637;42.020;23.992;2023-12-20T02:57:08;85.13;;;38.17;;
3249;SDS011;1637;42.020;23.992;2023-12-20T02:59:34;109.20;;;41.47;;
3249;SDS011;1637;42.020;23.992;2023-12-20T03:02:01;131.60;;;43.47;;
3249;SDS011;1637;42.020;23.992;2023-12-20T03:04:28;92.60;;;35.83;;
3249;SDS011;1637;42.020;23.992;2023-12-20T03:06:55;105.30;;;39.73;;
3249;SDS011;1637;42.020;23.992;2023-12-20T03:09:21;103.60;;;41.50;;
3249;SDS011;1637;42.020;23.992;2023-12-20T03:11:48;110.93;;;41.20;;
3249;SDS011;1637;42.020;23.992;2023-12-20T03:14:16;104.03;;;37.90;;
3249;SDS011;1637;42.020;23.992;2023-12-20T03:16:46;123.60;;;46.57;;
3249;SDS011;1637;42.020;23.992;2023-12-20T03:19:13;112.40;;;39.83;;
3249;SDS011;1637;42.020;23.992;2023-12-20T03:21:41;90.33;;;35.43;;
3249;SDS011;1637;42.020;23.992;2023-12-20T03:24:07;89.43;;;33.97;;
3249;SDS011;1637;42.020;23.992;2023-12-20T03:26:34;99.13;;;37.80;;
3249;SDS011;1637;42.020;23.992;2023-12-20T03:29:02;74.57;;;33.53;;
3249;SDS011;1637;42.020;23.992;2023-12-20T03:31:30;99.43;;;35.40;;
3249;SDS011;1637;42.020;23.992;2023-12-20T03:33:57;77.87;;;32.97;;
3249;SDS011;1637;42.020;23.992;2023-12-20T03:36:24;79.27;;;36.67;;
3249;SDS011;1637;42.020;23.992;2023-12-20T03:38:50;81.63;;;36.90;;
3249;SDS011;1637;42.020;23.992;2023-12-20T03:41:17;75.20;;;34.17;;
3249;SDS011;1637;42.020;23.992;2023-12-20T03:43:44;73.93;;;36.40;;
3249;SDS011;1637;42.020;23.992;2023-12-20T03:46:11;81.53;;;35.47;;
3249;SDS011;1637;42.020;23.992;2023-12-20T03:48:39;74.20;;;35.93;;
3249;SDS011;1637;42.020;23.992;2023-12-20T03:51:06;82.90;;;39.30;;
3249;SDS011;1637;42.020;23.992;2023-12-20T03:53:32;86.03;;;40.50;;
3249;SDS011;1637;42.020;23.992;2023-12-20T03:55:59;104.03;;;41.47;;
3249;SDS011;1637;42.020;23.992;2023-12-20T03:58:26;85.60;;;35.97;;
3249;SDS011;1637;42.020;23.992;2023-12-20T04:00:53;83.53;;;30.90;;
3249;SDS011;1637;42.020;23.992;2023-12-20T04:03:19;74.60;;;30.83;;
3249;SDS011;1637;42.020;23.992;2023-12-20T04:05:47;85.13;;;30.93;;
3249;SDS011;1637;42.020;23.992;2023-12-20T04:08:14;67.33;;;28.43;;
3249;SDS011;1637;42.020;23.992;2023-12-20T04:10:41;78.07;;;32.30;;
3249;SDS011;1637;42.020;23.992;2023-12-20T04:13:08;82.03;;;32.87;;
3249;SDS011;1637;42.020;23.992;2023-12-20T04:15:35;81.70;;;30.07;;
3249;SDS011;1637;42.020;23.992;2023-12-20T04:18:01;86.50;;;32.97;;
3249;SDS011;1637;42.020;23.992;2023-12-20T04:20:28;111.83;;;40.30;;
3249;SDS011;1637;42.020;23.992;2023-12-20T04:22:56;95.10;;;37.47;;
3249;SDS011;1637;42.020;23.992;2023-12-20T04:25:23;104.20;;;42.07;;
3249;SDS011;1637;42.020;23.992;2023-12-20T04:27:50;101.87;;;31.83;;
3249;SDS011;1637;42.020;23.992;2023-12-20T04:30:17;102.63;;;35.97;;
3249;SDS011;1637;42.020;23.992;2023-12-20T04:32:43;83.63;;;33.37;;
3249;SDS011;1637;42.020;23.992;2023-12-20T04:35:10;67.73;;;31.80;;
3249;SDS011;1637;42.020;23.992;2023-12-20T04:37:37;72.03;;;28.07;;
3249;SDS011;1637;42.020;23.992;2023-12-20T04:40:06;57.50;;;26.47;;
3249;SDS011;1637;42.020;23.992;2023-12-20T04:42:33;125.63;;;44.90;;
3249;SDS011;1637;42.020;23.992;2023-12-20T04:45:00;90.33;;;36.07;;
3249;SDS011;1637;42.020;23.992;2023-12-20T04:47:27;84.20;;;33.63;;
3249;SDS011;1637;42.020;23.992;2023-12-20T04:49:54;94.87;;;36.57;;
3249;SDS011;1637;42.020;23.992;2023-12-20T04:52:20;91.90;;;36.73;;
3249;SDS011;1637;42.020;23.992;2023-12-20T04:54:47;79.50;;;35.40;;
3249;SDS011;1637;42.020;23.992;2023-12-20T04:57:15;116.93;;;36.63;;
3249;SDS011;1637;42.020;23.992;2023-12-20T04:59:42;84.50;;;32.77;;
3249;SDS011;1637;42.020;23.992;2023-12-20T05:02:09;106.17;;;37.67;;
3249;SDS011;1637;42.020;23.992;2023-12-20T05:04:36;95.87;;;32.60;;
3249;SDS011;1637;42.020;23.992;2023-12-20T05:07:03;99.73;;;37.17;;
3249;SDS011;1637;42.020;23.992;2023-12-20T05:09:31;89.07;;;34.50;;
3249;SDS011;1637;42.020;23.992;2023-12-20T05:11:58;70.33;;;34.87;;
3249;SDS011;1637;42.020;23.992;2023-12-20T05:14:27;69.40;;;34.10;;
3249;SDS011;1637;42.020;23.992;2023-12-20T05:16:53;96.97;;;36.20;;
3249;SDS011;1637;42.020;23.992;2023-12-20T05:19:20;82.23;;;34.80;;
3249;SDS011;1637;42.020;23.992;2023-12-20T05:21:47;85.80;;;36.13;;
3249;SDS011;1637;42.020;23.992;2023-12-20T05:24:14;78.83;;;32.27;;
3249;SDS011;1637;42.020;23.992;2023-12-20T05:26:41;90.03;;;33.90;;
3249;SDS011;1637;42.020;23.992;2023-12-20T05:29:08;84.67;;;41.17;;
3249;SDS011;1637;42.020;23.992;2023-12-20T05:31:36;88.97;;;40.27;;
3249;SDS011;1637;42.020;23.992;2023-12-20T05:34:03;112.47;;;40.17;;
3249;SDS011;1637;42.020;23.992;2023-12-20T05:36:29;132.97;;;44.47;;
3249;SDS011;1637;42.020;23.992;2023-12-20T05:38:56;146.33;;;48.43;;
3249;SDS011;1637;42.020;23.992;2023-12-20T05:41:23;121.50;;;41.93;;
3249;SDS011;1637;42.020;23.992;2023-12-20T05:43:50;120.10;;;42.47;;
3249;SDS011;1637;42.020;23.992;2023-12-20T05:46:17;120.47;;;36.90;;
3249;SDS011;1637;42.020;23.992;2023-12-20T05:48:45;87.83;;;34.80;;
3249;SDS011;1637;42.020;23.992;2023-12-20T05:51:12;136.17;;;43.40;;
3249;SDS011;1637;42.020;23.992;2023-12-20T05:53:38;84.43;;;33.60;;
3249;SDS011;1637;42.020;23.992;2023-12-20T05:56:05;112.97;;;44.30;;
3249;SDS011;1637;42.020;23.992;2023-12-20T05:58:32;112.30;;;52.27;;
3249;SDS011;1637;42.020;23.992;2023-12-20T06:00:59;131.80;;;52.90;;
3249;SDS011;1637;42.020;23.992;2023-12-20T06:03:26;119.60;;;52.80;;
3249;SDS011;1637;42.020;23.992;2023-12-20T06:05:54;130.90;;;50.27;;
3249;SDS011;1637;42.020;23.992;2023-12-20T06:08:21;126.33;;;50.10;;
3249;SDS011;1637;42.020;23.992;2023-12-20T06:10:48;153.50;;;59.47;;
3249;SDS011;1637;42.020;23.992;2023-12-20T06:13:15;142.87;;;55.50;;
3249;SDS011;1637;42.020;23.992;2023-12-20T06:15:41;172.33;;;67.67;;
3249;SDS011;1637;42.020;23.992;2023-12-20T06:18:08;159.37;;;60.47;;
3249;SDS011;1637;42.020;23.992;2023-12-20T06:20:35;140.13;;;51.23;;
3249;SDS011;1637;42.020;23.992;2023-12-20T06:23:03;189.13;;;62.50;;
3249;SDS011;1637;42.020;23.992;2023-12-20T06:25:30;117.93;;;48.43;;
3249;SDS011;1637;42.020;23.992;2023-12-20T06:27:57;143.77;;;48.97;;
3249;SDS011;1637;42.020;23.992;2023-12-20T06:30:23;119.57;;;46.03;;
3249;SDS011;1637;42.020;23.992;2023-12-20T06:32:52;176.20;;;59.57;;
3249;SDS011;1637;42.020;23.992;2023-12-20T06:35:19;199.83;;;69.30;;
3249;SDS011;1637;42.020;23.992;2023-12-20T06:37:46;104.20;;;39.47;;
3249;SDS011;1637;42.020;23.992;2023-12-20T06:40:14;131.00;;;46.50;;
3249;SDS011;1637;42.020;23.992;2023-12-20T06:42:42;159.20;;;62.60;;
3249;SDS011;1637;42.020;23.992;2023-12-20T06:45:09;117.83;;;48.80;;
3249;SDS011;1637;42.020;23.992;2023-12-20T06:47:37;104.50;;;47.73;;
3249;SDS011;1637;42.020;23.992;2023-12-20T06:50:04;113.07;;;53.30;;
3249;SDS011;1637;42.020;23.992;2023-12-20T06:52:33;96.13;;;43.30;;
3249;SDS011;1637;42.020;23.992;2023-12-20T06:55:00;79.17;;;35.60;;
3249;SDS011;1637;42.020;23.992;2023-12-20T06:57:28;86.97;;;40.77;;
3249;SDS011;1637;42.020;23.992;2023-12-20T06:59:55;112.20;;;54.23;;
3249;SDS011;1637;42.020;23.992;2023-12-20T07:02:23;85.97;;;44.03;;
3249;SDS011;1637;42.020;23.992;2023-12-20T07:04:49;125.90;;;52.77;;
3249;SDS011;1637;42.020;23.992;2023-12-20T07:07:16;151.00;;;63.67;;
3249;SDS011;1637;42.020;23.992;2023-12-20T07:09:43;153.30;;;66.07;;
3249;SDS011;1637;42.020;23.992;2023-12-20T07:12:10;126.33;;;53.80;;
3249;SDS011;1637;42.020;23.992;2023-12-20T07:14:38;131.73;;;57.17;;
3249;SDS011;1637;42.020;23.992;2023-12-20T07:17:04;143.50;;;62.03;;
3249;SDS011;1637;42.020;23.992;2023-12-20T07:19:36;647.87;;;307.47;;
3249;SDS011;1637;42.020;23.992;2023-12-20T07:22:03;399.37;;;212.33;;
3249;SDS011;1637;42.020;23.992;2023-12-20T07:24:30;155.83;;;75.07;;
3249;SDS011;1637;42.020;23.992;2023-12-20T07:26:57;134.00;;;59.93;;
3249;SDS011;1637;42.020;23.992;2023-12-20T07:29:23;185.43;;;88.87;;
3249;SDS011;1637;42.020;23.992;2023-12-20T07:31:52;283.57;;;100.23;;
3249;SDS011;1637;42.020;23.992;2023-12-20T07:34:19;331.63;;;106.30;;
3249;SDS011;1637;42.020;23.992;2023-12-20T07:36:45;282.43;;;99.87;;
3249;SDS011;1637;42.020;23.992;2023-12-20T07:39:12;121.10;;;52.67;;
3249;SDS011;1637;42.020;23.992;2023-12-20T07:41:39;186.33;;;74.27;;
3249;SDS011;1637;42.020;23.992;2023-12-20T07:44:06;136.33;;;60.73;;
3249;SDS011;1637;42.020;23.992;2023-12-20T07:46:33;176.67;;;78.10;;
3249;SDS011;1637;42.020;23.992;2023-12-20T07:49:01;277.13;;;117.60;;
3249;SDS011;1637;42.020;23.992;2023-12-20T07:51:28;189.97;;;83.60;;
3249;SDS011;1637;42.020;23.992;2023-12-20T07:53:55;192.07;;;81.63;;
3249;SDS011;1637;42.020;23.992;2023-12-20T07:56:21;340.27;;;139.87;;
3249;SDS011;1637;42.020;23.992;2023-12-20T07:58:48;159.20;;;71.20;;
3249;SDS011;1637;42.020;23.992;2023-12-20T08:01:15;251.77;;;110.30;;
3249;SDS011;1637;42.020;23.992;2023-12-20T08:03:42;215.73;;;104.50;;
3249;SDS011;1637;42.020;23.992;2023-12-20T08:06:10;179.70;;;87.67;;
3249;SDS011;1637;42.020;23.992;2023-12-20T08:08:37;237.80;;;101.20;;
3249;SDS011;1637;42.020;23.992;2023-12-20T08:11:04;465.17;;;211.90;;
3249;SDS011;1637;42.020;23.992;2023-12-20T08:13:30;321.50;;;138.87;;
3249;SDS011;1637;42.020;23.992;2023-12-20T08:15:57;319.10;;;143.07;;
3249;SDS011;1637;42.020;23.992;2023-12-20T08:18:24;269.77;;;125.57;;
3249;SDS011;1637;42.020;23.992;2023-12-20T08:20:51;205.77;;;103.00;;
3249;SDS011;1637;42.020;23.992;2023-12-20T08:23:20;208.93;;;102.80;;
3249;SDS011;1637;42.020;23.992;2023-12-20T08:25:47;215.70;;;113.87;;
3249;SDS011;1637;42.020;23.992;2023-12-20T08:28:14;270.20;;;118.07;;
3249;SDS011;1637;42.020;23.992;2023-12-20T08:30:41;315.23;;;125.97;;
3249;SDS011;1637;42.020;23.992;2023-12-20T08:33:08;482.87;;;173.53;;
3249;SDS011;1637;42.020;23.992;2023-12-20T08:35:37;431.57;;;153.37;;
3249;SDS011;1637;42.020;23.992;2023-12-20T08:38:04;510.40;;;185.47;;
3249;SDS011;1637;42.020;23.992;2023-12-20T08:40:33;264.90;;;118.10;;
3249;SDS011;1637;42.020;23.992;2023-12-20T08:42:59;265.00;;;129.27;;
3249;SDS011;1637;42.020;23.992;2023-12-20T08:45:27;247.43;;;122.00;;
3249;SDS011;1637;42.020;23.992;2023-12-20T08:47:53;301.33;;;139.33;;
3249;SDS011;1637;42.020;23.992;2023-12-20T08:50:20;382.80;;;209.47;;
3249;SDS011;1637;42.020;23.992;2023-12-20T08:52:47;342.27;;;180.27;;
3249;SDS011;1637;42.020;23.992;2023-12-20T08:55:13;363.93;;;175.07;;
3249;SDS011;1637;42.020;23.992;2023-12-20T08:57:44;369.67;;;178.80;;
3249;SDS011;1637;42.020;23.992;2023-12-20T09:00:11;283.57;;;135.47;;
3249;SDS011;1637;42.020;23.992;2023-12-20T09:02:39;236.50;;;115.77;;
3249;SDS011;1637;42.020;23.992;2023-12-20T09:05:06;272.73;;;130.67;;
3249;SDS011;1637;42.020;23.992;2023-12-20T09:07:33;261.03;;;138.10;;
3249;SDS011;1637;42.020;23.992;2023-12-20T09:10:00;281.60;;;145.47;;
3249;SDS011;1637;42.020;23.992;2023-12-20T09:12:27;283.80;;;148.60;;
3249;SDS011;1637;42.020;23.992;2023-12-20T09:14:55;432.17;;;250.97;;
3249;SDS011;1637;42.020;23.992;2023-12-20T09:17:22;490.57;;;310.57;;
3249;SDS011;1637;42.020;23.992;2023-12-20T09:19:49;216.00;;;125.60;;
3249;SDS011;1637;42.020;23.992;2023-12-20T09:22:17;209.77;;;124.30;;
3249;SDS011;1637;42.020;23.992;2023-12-20T09:24:44;245.17;;;122.30;;
3249;SDS011;1637;42.020;23.992;2023-12-20T09:27:11;145.80;;;79.57;;
3249;SDS011;1637;42.020;23.992;2023-12-20T09:29:37;189.97;;;98.10;;
3249;SDS011;1637;42.020;23.992;2023-12-20T09:32:06;240.27;;;124.20;;
3249;SDS011;1637;42.020;23.992;2023-12-20T09:34:33;150.87;;;85.50;;
3249;SDS011;1637;42.020;23.992;2023-12-20T09:37:00;124.70;;;67.97;;
3249;SDS011;1637;42.020;23.992;2023-12-20T09:39:28;96.63;;;52.67;;
3249;SDS011;1637;42.020;23.992;2023-12-20T09:41:58;93.17;;;48.80;;
3249;SDS011;1637;42.020;23.992;2023-12-20T09:44:28;91.33;;;51.10;;
3249;SDS011;1637;42.020;23.992;2023-12-20T09:46:55;89.07;;;46.60;;
3249;SDS011;1637;42.020;23.992;2023-12-20T09:49:24;132.43;;;69.43;;
3249;SDS011;1637;42.020;23.992;2023-12-20T09:51:53;388.50;;;240.40;;
3249;SDS011;1637;42.020;23.992;2023-12-20T09:54:21;197.77;;;116.37;;
3249;SDS011;1637;42.020;23.992;2023-12-20T09:56:48;158.47;;;79.17;;
3249;SDS011;1637;42.020;23.992;2023-12-20T09:59:15;264.67;;;145.27;;
3249;SDS011;1637;42.020;23.992;2023-12-20T10:01:42;186.03;;;102.40;;
3249;SDS011;1637;42.020;23.992;2023-12-20T10:04:10;143.83;;;82.53;;
3249;SDS011;1637;42.020;23.992;2023-12-20T10:06:40;203.40;;;112.53;;
3249;SDS011;1637;42.020;23.992;2023-12-20T10:09:07;152.83;;;83.27;;
3249;SDS011;1637;42.020;23.992;2023-12-20T10:11:35;249.70;;;150.20;;
3249;SDS011;1637;42.020;23.992;2023-12-20T10:14:03;305.00;;;202.87;;
3249;SDS011;1637;42.020;23.992;2023-12-20T10:16:30;127.33;;;73.97;;
3249;SDS011;1637;42.020;23.992;2023-12-20T10:18:57;130.03;;;65.27;;
3249;SDS011;1637;42.020;23.992;2023-12-20T10:21:26;168.83;;;73.80;;
3249;SDS011;1637;42.020;23.992;2023-12-20T10:23:54;331.70;;;163.63;;
3249;SDS011;1637;42.020;23.992;2023-12-20T10:26:21;169.90;;;79.13;;
3249;SDS011;1637;42.020;23.992;2023-12-20T10:28:50;169.90;;;91.47;;
3249;SDS011;1637;42.020;23.992;2023-12-20T10:31:27;188.30;;;112.73;;
3249;SDS011;1637;42.020;23.992;2023-12-20T10:33:55;162.70;;;96.13;;
3249;SDS011;1637;42.020;23.992;2023-12-20T10:36:23;197.30;;;117.87;;
3249;SDS011;1637;42.020;23.992;2023-12-20T10:38:52;159.50;;;93.37;;
3249;SDS011;1637;42.020;23.992;2023-12-20T10:41:23;191.87;;;104.97;;
3249;SDS011;1637;42.020;23.992;2023-12-20T10:43:53;155.80;;;86.53;;
3249;SDS011;1637;42.020;23.992;2023-12-20T10:46:21;205.77;;;109.33;;
3249;SDS011;1637;42.020;23.992;2023-12-20T10:48:48;149.47;;;75.70;;
3249;SDS011;1637;42.020;23.992;2023-12-20T10:51:19;217.00;;;92.87;;
3249;SDS011;1637;42.020;23.992;2023-12-20T10:53:47;159.07;;;78.77;;
3249;SDS011;1637;42.020;23.992;2023-12-20T10:56:15;169.83;;;86.27;;
3249;SDS011;1637;42.020;23.992;2023-12-20T10:58:44;307.37;;;147.10;;
3249;SDS011;1637;42.020;23.992;2023-12-20T11:01:12;234.10;;;115.60;;
3249;SDS011;1637;42.020;23.992;2023-12-20T11:03:43;208.27;;;104.33;;
3249;SDS011;1637;42.020;23.992;2023-12-20T11:06:13;198.70;;;108.63;;
3249;SDS011;1637;42.020;23.992;2023-12-20T11:08:51;246.27;;;134.27;;
3249;SDS011;1637;42.020;23.992;2023-12-20T11:11:34;181.13;;;108.87;;
3249;SDS011;1637;42.020;23.992;2023-12-20T11:14:06;218.57;;;122.90;;
3249;SDS011;1637;42.020;23.992;2023-12-20T11:16:38;222.53;;;106.77;;
3249;SDS011;1637;42.020;23.992;2023-12-20T11:19:05;183.17;;;102.50;;
3249;SDS011;1637;42.020;23.992;2023-12-20T11:21:32;202.13;;;110.20;;
3249;SDS011;1637;42.020;23.992;2023-12-20T11:23:59;221.47;;;114.13;;
3249;SDS011;1637;42.020;23.992;2023-12-20T11:26:26;236.90;;;118.90;;
3249;SDS011;1637;42.020;23.992;2023-12-20T11:28:54;287.73;;;141.67;;
3249;SDS011;1637;42.020;23.992;2023-12-20T11:31:23;309.97;;;157.53;;
3249;SDS011;1637;42.020;23.992;2023-12-20T11:33:50;278.80;;;149.10;;
3249;SDS011;1637;42.020;23.992;2023-12-20T11:36:18;249.80;;;138.97;;
3249;SDS011;1637;42.020;23.992;2023-12-20T11:38:55;333.40;;;194.97;;
3249;SDS011;1637;42.020;23.992;2023-12-20T11:41:23;324.67;;;165.77;;
3249;SDS011;1637;42.020;23.992;2023-12-20T11:43:51;304.27;;;158.17;;
3249;SDS011;1637;42.020;23.992;2023-12-20T11:46:19;365.43;;;192.57;;
3249;SDS011;1637;42.020;23.992;2023-12-20T11:48:48;334.67;;;175.80;;
3249;SDS011;1637;42.020;23.992;2023-12-20T11:51:15;310.83;;;162.93;;
3249;SDS011;1637;42.020;23.992;2023-12-20T11:53:41;255.37;;;132.03;;
3249;SDS011;1637;42.020;23.992;2023-12-20T11:56:08;288.73;;;153.37;;
3249;SDS011;1637;42.020;23.992;2023-12-20T11:58:35;323.13;;;163.93;;
3249;SDS011;1637;42.020;23.992;2023-12-20T12:01:03;440.43;;;265.87;;
3249;SDS011;1637;42.020;23.992;2023-12-20T12:03:32;263.60;;;139.43;;
3249;SDS011;1637;42.020;23.992;2023-12-20T12:06:00;287.97;;;153.90;;
3249;SDS011;1637;42.020;23.992;2023-12-20T12:08:29;262.17;;;145.03;;
3249;SDS011;1637;42.020;23.992;2023-12-20T12:10:56;319.57;;;166.93;;
3249;SDS011;1637;42.020;23.992;2023-12-20T12:13:23;299.13;;;164.80;;
3249;SDS011;1637;42.020;23.992;2023-12-20T12:15:52;342.90;;;182.50;;
3249;SDS011;1637;42.020;23.992;2023-12-20T12:18:19;290.77;;;163.07;;
3249;SDS011;1637;42.020;23.992;2023-12-20T12:20:46;286.23;;;157.97;;
3249;SDS011;1637;42.020;23.992;2023-12-20T12:23:14;280.23;;;150.17;;
3249;SDS011;1637;42.020;23.992;2023-12-20T12:25:49;302.47;;;168.87;;
3249;SDS011;1637;42.020;23.992;2023-12-20T12:28:16;351.17;;;194.73;;
3249;SDS011;1637;42.020;23.992;2023-12-20T12:30:43;383.03;;;224.03;;
3249;SDS011;1637;42.020;23.992;2023-12-20T12:33:22;361.47;;;201.27;;
3249;SDS011;1637;42.020;23.992;2023-12-20T12:35:50;335.47;;;181.27;;
3249;SDS011;1637;42.020;23.992;2023-12-20T12:38:21;289.57;;;152.17;;
3249;SDS011;1637;42.020;23.992;2023-12-20T12:40:47;267.57;;;141.00;;
3249;SDS011;1637;42.020;23.992;2023-12-20T12:43:15;249.53;;;134.30;;
3249;SDS011;1637;42.020;23.992;2023-12-20T12:45:42;299.63;;;160.20;;
3249;SDS011;1637;42.020;23.992;2023-12-20T12:48:09;295.90;;;156.83;;
3249;SDS011;1637;42.020;23.992;2023-12-20T12:50:36;321.37;;;164.23;;
3249;SDS011;1637;42.020;23.992;2023-12-20T12:53:03;293.97;;;151.80;;
3249;SDS011;1637;42.020;23.992;2023-12-20T12:55:31;355.70;;;180.60;;
3249;SDS011;1637;42.020;23.992;2023-12-20T12:57:59;310.50;;;156.47;;
3249;SDS011;1637;42.020;23.992;2023-12-20T13:00:26;320.83;;;167.67;;
3249;SDS011;1637;42.020;23.992;2023-12-20T13:02:53;328.50;;;168.43;;
3249;SDS011;1637;42.020;23.992;2023-12-20T13:05:20;328.83;;;181.20;;
3249;SDS011;1637;42.020;23.992;2023-12-20T13:07:46;322.37;;;174.80;;
3249;SDS011;1637;42.020;23.992;2023-12-20T13:10:13;179.07;;;99.90;;
3249;SDS011;1637;42.020;23.992;2023-12-20T13:12:43;233.43;;;126.47;;
3249;SDS011;1637;42.020;23.992;2023-12-20T13:15:09;295.47;;;156.23;;
3249;SDS011;1637;42.020;23.992;2023-12-20T13:17:36;293.40;;;155.87;;
3249;SDS011;1637;42.020;23.992;2023-12-20T13:20:03;361.63;;;192.60;;
3249;SDS011;1637;42.020;23.992;2023-12-20T13:22:31;347.10;;;188.87;;
3249;SDS011;1637;42.020;23.992;2023-12-20T13:24:58;328.47;;;180.00;;
3249;SDS011;1637;42.020;23.992;2023-12-20T13:27:25;278.10;;;151.53;;
3249;SDS011;1637;42.020;23.992;2023-12-20T13:29:53;274.00;;;146.47;;
3249;SDS011;1637;42.020;23.992;2023-12-20T13:32:19;263.27;;;142.33;;
3249;SDS011;1637;42.020;23.992;2023-12-20T13:34:46;313.13;;;162.40;;
3249;SDS011;1637;42.020;23.992;2023-12-20T13:37:13;319.97;;;168.23;;
3249;SDS011;1637;42.020;23.992;2023-12-20T13:39:40;327.67;;;168.67;;
3249;SDS011;1637;42.020;23.992;2023-12-20T13:42:07;344.53;;;186.60;;
3249;SDS011;1637;42.020;23.992;2023-12-20T13:44:34;381.90;;;208.53;;
3249;SDS011;1637;42.020;23.992;2023-12-20T13:47:02;338.20;;;191.10;;
3249;SDS011;1637;42.020;23.992;2023-12-20T13:49:29;431.83;;;247.03;;
3249;SDS011;1637;42.020;23.992;2023-12-20T13:51:55;393.90;;;198.63;;
3249;SDS011;1637;42.020;23.992;2023-12-20T13:54:23;459.07;;;253.63;;
3249;SDS011;1637;42.020;23.992;2023-12-20T13:56:49;352.30;;;194.27;;
3249;SDS011;1637;42.020;23.992;2023-12-20T13:59:16;333.97;;;186.67;;
3249;SDS011;1637;42.020;23.992;2023-12-20T14:01:43;331.97;;;182.60;;
3249;SDS011;1637;42.020;23.992;2023-12-20T14:04:11;308.93;;;160.27;;
3249;SDS011;1637;42.020;23.992;2023-12-20T14:06:38;315.07;;;154.73;;
3249;SDS011;1637;42.020;23.992;2023-12-20T14:09:05;217.27;;;115.33;;
3249;SDS011;1637;42.020;23.992;2023-12-20T14:11:32;211.63;;;110.43;;
3249;SDS011;1637;42.020;23.992;2023-12-20T14:13:59;218.17;;;113.00;;
3249;SDS011;1637;42.020;23.992;2023-12-20T14:16:27;214.63;;;113.53;;
3249;SDS011;1637;42.020;23.992;2023-12-20T14:18:53;234.73;;;117.77;;